Time;durP1;ratioP1;P1;durP2;ratioP2;P2;SDS_P1;SDS_P2;PMS_P1;PMS_P2;Temp;Humidity;BMP_temperature;BMP_pressure;BME280_temperature;BME280_humidity;BME280_pressure;Samples;Min_cycle;Max_cycle;Signal;HPM_P1;HPM_P2
2021/07/31 06:44:16;;;;;;;;;4.50;3.00;;;;;19.17;59.75;101089.56;5473641;23;46418;-75
2021/07/31 06:46:41;;;;;;;;;5.00;3.00;;;;;19.20;59.74;101097.38;4926043;28;45245;-75
2021/07/31 06:49:07;;;;;;;;;6.00;3.00;;;;;19.17;59.06;101080.69;4926722;28;46843;-75
2021/07/31 06:51:32;;;;;;;;;4.00;2.75;;;;;19.21;59.53;101084.91;4924027;28;45512;-75
2021/07/31 06:54:00;;;;;;;;;3.75;3.75;;;;;19.23;59.72;101097.19;4934066;28;45212;-75
2021/07/31 06:56:26;;;;;;;;;4.25;4.25;;;;;19.24;59.56;101092.69;4933252;28;45212;-75
2021/07/31 06:58:51;;;;;;;;;3.25;3.00;;;;;19.24;59.18;101098.00;4934777;28;45505;-75
2021/07/31 07:01:16;;;;;;;;;6.00;2.75;;;;;19.23;59.30;101093.66;4924552;28;45450;-75
2021/07/31 07:03:44;;;;;;;;;4.50;4.00;;;;;19.26;59.33;101098.75;4912563;28;46150;-75
2021/07/31 07:06:10;;;;;;;;;4.50;3.00;;;;;19.25;59.52;101093.56;4927566;28;46742;-75
2021/07/31 07:08:36;;;;;;;;;3.25;3.25;;;;;19.33;59.83;101102.75;4922602;28;47080;-75
2021/07/31 07:11:03;;;;;;;;;5.75;4.00;;;;;19.45;59.06;101100.25;4928378;28;45266;-75
2021/07/31 07:13:28;;;;;;;;;3.50;3.50;;;;;19.56;59.00;101102.19;4935097;28;45259;-75
2021/07/31 07:15:54;;;;;;;;;2.75;2.75;;;;;19.63;58.75;101102.69;4931872;28;45502;-75
2021/07/31 07:18:19;;;;;;;;;6.25;4.50;;;;;19.68;58.98;101105.88;4929272;28;45473;-75
2021/07/31 07:20:45;;;;;;;;;4.00;3.00;;;;;19.66;58.39;101102.44;4939478;28;45172;-75
2021/07/31 07:23:11;;;;;;;;;3.50;3.25;;;;;19.62;58.82;101114.28;4929681;28;45284;-75
2021/07/31 07:25:37;;;;;;;;;5.00;3.75;;;;;19.60;58.58;101102.88;4927334;28;45811;-75
2021/07/31 07:28:02;;;;;;;;;6.00;4.00;;;;;19.57;58.73;101117.25;4926979;28;46146;-75
2021/07/31 07:30:28;;;;;;;;;2.50;2.25;;;;;19.61;58.73;101110.75;4929752;28;45374;-75
2021/07/31 07:32:54;;;;;;;;;5.25;3.50;;;;;19.64;59.42;101110.56;4922724;28;45489;-75
2021/07/31 07:35:20;;;;;;;;;5.50;5.50;;;;;19.61;58.12;101109.91;4925338;28;45377;-75
2021/07/31 07:37:46;;;;;;;;;3.25;2.75;;;;;19.50;58.46;101103.47;4927591;28;45552;-75
2021/07/31 07:40:12;;;;;;;;;4.75;3.75;;;;;19.49;59.08;101111.56;4933747;28;45237;-75
2021/07/31 07:42:38;;;;;;;;;5.00;4.25;;;;;19.48;58.50;101108.06;4934016;28;45627;-75
2021/07/31 07:45:05;;;;;;;;;4.00;3.50;;;;;19.41;58.70;101104.91;4927145;28;46066;-75
2021/07/31 07:47:30;;;;;;;;;6.00;5.50;;;;;19.42;59.20;101103.13;4904757;28;45441;-75
2021/07/31 07:49:56;;;;;;;;;7.00;5.00;;;;;19.50;59.02;101103.47;4910540;28;45199;-75
2021/07/31 07:52:21;;;;;;;;;7.00;4.00;;;;;19.61;58.50;101107.22;4906966;28;45247;-75
2021/07/31 07:54:46;;;;;;;;;6.75;4.00;;;;;19.63;58.44;101103.50;4906213;28;45324;-75
2021/07/31 07:57:11;;;;;;;;;6.25;4.25;;;;;19.64;58.48;101102.56;4910347;28;46357;-75
2021/07/31 07:59:37;;;;;;;;;3.00;3.00;;;;;19.63;58.95;101103.50;4912162;28;45415;-75
2021/07/31 08:02:02;;;;;;;;;5.00;4.00;;;;;19.54;58.06;101104.13;4912972;28;45447;-74
2021/07/31 08:04:32;;;;;;;;;6.00;5.00;;;;;19.42;57.81;101103.13;4917381;28;45450;-75
2021/07/31 08:06:57;;;;;;;;;4.25;3.00;;;;;19.36;58.46;101111.53;4919388;28;45645;-75
2021/07/31 08:09:22;;;;;;;;;4.50;4.00;;;;;19.36;58.94;101108.84;4913088;28;45225;-75
2021/07/31 08:11:48;;;;;;;;;2.00;2.00;;;;;19.33;58.98;101112.56;4920849;28;45479;-75
2021/07/31 08:14:13;;;;;;;;;4.25;4.25;;;;;19.34;59.40;101112.47;4922310;28;45487;-75
2021/07/31 08:16:40;;;;;;;;;6.25;4.50;;;;;19.41;58.94;101104.09;4922166;28;45333;-75
2021/07/31 08:19:06;;;;;;;;;4.75;4.75;;;;;19.52;58.62;101111.38;4909996;28;45607;-80
2021/07/31 08:21:32;;;;;;;;;4.25;4.25;;;;;19.58;58.63;101110.97;4905949;28;45290;-75
2021/07/31 08:23:58;;;;;;;;;6.25;5.25;;;;;19.66;59.09;101105.13;4915683;28;45596;-75
2021/07/31 08:26:23;;;;;;;;;5.50;4.50;;;;;19.75;58.54;101112.53;4922472;28;46626;-75
2021/07/31 08:28:50;;;;;;;;;5.00;3.00;;;;;19.86;57.96;101114.47;4908972;28;45304;-75
2021/07/31 08:31:16;;;;;;;;;7.50;5.75;;;;;19.92;58.25;101115.88;4919843;28;45275;-75
2021/07/31 08:33:41;;;;;;;;;4.75;4.75;;;;;19.96;57.79;101106.69;4911939;28;45338;-75
2021/07/31 08:36:08;;;;;;;;;6.00;4.50;;;;;20.05;58.09;101112.38;4922276;28;46197;-75
2021/07/31 08:38:34;;;;;;;;;4.25;2.75;;;;;20.06;57.58;101114.06;4907899;28;45380;-75
2021/07/31 08:41:00;;;;;;;;;5.25;5.25;;;;;20.07;56.72;101110.47;4922556;28;45318;-75
2021/07/31 08:43:28;;;;;;;;;4.00;4.00;;;;;20.05;57.10;101112.38;4908943;28;45651;-75
2021/07/31 08:45:53;;;;;;;;;6.75;5.00;;;;;20.07;56.92;101106.00;4922072;28;45677;-75
2021/07/31 08:48:26;;;;;;;;;4.25;3.75;;;;;20.08;57.13;101105.00;4923666;28;46967;-75
2021/07/31 08:50:53;;;;;;;;;3.00;3.00;;;;;20.11;57.22;101106.66;4921095;28;45362;-75
2021/07/31 08:53:24;;;;;;;;;7.00;5.75;;;;;20.14;56.83;101106.44;4902863;28;45386;-75
2021/07/31 08:55:50;;;;;;;;;4.25;4.25;;;;;20.14;57.11;101103.78;4922299;28;46634;-75
2021/07/31 08:58:15;;;;;;;;;7.50;4.00;;;;;20.18;57.37;101102.59;4908374;28;45227;-75
2021/07/31 09:00:40;;;;;;;;;6.00;6.00;;;;;20.18;56.21;101104.41;4911165;28;45243;-75
2021/07/31 09:03:06;;;;;;;;;5.25;4.75;;;;;20.18;56.88;101107.94;4908826;28;45224;-75
2021/07/31 09:05:37;;;;;;;;;4.75;4.50;;;;;20.20;56.37;101103.34;4908745;28;45423;-75
2021/07/31 09:08:04;;;;;;;;;5.75;4.00;;;;;20.22;56.32;101109.44;4908521;28;45810;-75
2021/07/31 09:10:31;;;;;;;;;5.00;5.00;;;;;20.21;55.32;101110.41;4918297;28;45469;-75
2021/07/31 09:13:02;;;;;;;;;5.75;5.25;;;;;20.23;56.24;101110.28;4925237;28;45649;-75
2021/07/31 09:15:39;;;;;;;;;6.00;3.75;;;;;20.30;56.11;101111.56;4911991;28;45282;-75
2021/07/31 09:18:29;;;;;;;;;4.50;4.50;;;;;20.33;55.67;101105.19;4907458;28;45211;-75
2021/07/31 09:20:59;;;;;;;;;2.25;2.25;;;;;20.39;55.63;101104.78;4904093;28;45335;-75
2021/07/31 09:23:45;;;;;;;;;4.25;4.25;;;;;20.48;55.82;101099.72;4912107;28;45376;-75
2021/07/31 09:26:21;;;;;;;;;5.00;4.00;;;;;20.54;55.64;101099.31;4899592;28;45424;-75
2021/07/31 09:29:08;;;;;;;;;4.75;4.25;;;;;20.60;55.24;101096.19;4920406;28;45273;-75
2021/07/31 09:31:36;;;;;;;;;3.25;3.25;;;;;20.68;54.60;101091.19;4918003;28;45374;-75
2021/07/31 09:34:03;;;;;;;;;3.00;3.00;;;;;20.76;55.21;101093.31;4911734;28;45515;-75
2021/07/31 09:36:44;;;;;;;;;4.00;4.00;;;;;20.82;54.97;101080.50;4908068;28;47094;-77
2021/07/31 09:39:10;;;;;;;;;4.25;3.50;;;;;20.94;54.69;101092.09;4911780;28;45715;-76
2021/07/31 09:41:40;;;;;;;;;3.25;3.25;;;;;21.03;54.53;101086.13;4925112;28;45342;-77
2021/07/31 09:44:15;;;;;;;;;3.50;3.00;;;;;21.12;54.40;101081.91;4910112;28;46060;-77
2021/07/31 09:46:41;;;;;;;;;4.50;4.00;;;;;21.18;54.44;101088.66;4929374;28;47382;-77
2021/07/31 09:49:08;;;;;;;;;3.00;3.00;;;;;21.22;53.93;101082.09;4936346;28;45232;-76
2021/07/31 09:51:45;;;;;;;;;8.50;4.25;;;;;21.24;53.63;101090.84;4943918;28;45422;-76
2021/07/31 09:54:13;;;;;;;;;3.25;3.25;;;;;21.30;53.79;101077.06;4927120;28;45670;-77
2021/07/31 09:56:39;;;;;;;;;4.25;3.75;;;;;21.35;53.97;101074.91;4935955;28;45663;-77
2021/07/31 09:59:06;;;;;;;;;4.50;4.00;;;;;21.39;54.01;101058.63;4925410;28;45453;-76
2021/07/31 10:01:34;;;;;;;;;3.50;3.00;;;;;21.44;53.98;101064.47;4930590;28;45498;-76
2021/07/31 10:04:02;;;;;;;;;7.00;4.00;;;;;21.48;52.85;101063.28;4914686;28;45445;-76
2021/07/31 10:06:29;;;;;;;;;4.50;4.00;;;;;21.50;53.09;101058.69;4917180;28;45800;-76
2021/07/31 10:08:55;;;;;;;;;5.00;3.50;;;;;21.56;53.34;101060.03;4920495;28;45393;-76
2021/07/31 10:11:21;;;;;;;;;3.50;3.50;;;;;21.59;53.10;101049.97;4931403;28;45486;-76
2021/07/31 10:13:47;;;;;;;;;4.00;3.00;;;;;21.63;52.77;101055.91;4925402;28;45558;-77
2021/07/31 10:16:12;;;;;;;;;4.25;4.00;;;;;21.59;52.58;101046.44;4928267;28;45532;-76
2021/07/31 10:18:38;;;;;;;;;4.00;4.00;;;;;21.60;52.24;101042.81;4929069;28;45337;-76
2021/07/31 10:21:05;;;;;;;;;4.50;4.50;;;;;21.63;52.35;101053.25;4932818;28;46795;-77
2021/07/31 10:23:55;;;;;;;;;3.00;3.00;;;;;21.64;52.50;101049.63;4925964;28;45391;-76
2021/07/31 10:26:21;;;;;;;;;4.50;4.50;;;;;21.59;51.55;101055.31;4926670;28;46361;-77
2021/07/31 10:28:46;;;;;;;;;5.25;4.00;;;;;21.55;51.41;101045.81;4936499;28;45759;-76
2021/07/31 10:31:32;;;;;;;;;3.25;1.75;;;;;21.56;51.45;101044.84;4916992;28;45617;-76
2021/07/31 10:33:57;;;;;;;;;3.50;2.25;;;;;21.51;50.58;101047.00;4935345;28;47178;-77
2021/07/31 10:36:26;;;;;;;;;3.75;3.75;;;;;21.48;51.67;101048.09;4939878;28;45830;-76
2021/07/31 10:38:52;;;;;;;;;5.00;3.00;;;;;21.46;51.93;101044.69;4911679;28;45427;-76
2021/07/31 10:41:56;;;;;;;;;2.50;2.50;;;;;21.54;51.97;101046.78;4943347;28;45140;-76
2021/07/31 10:44:22;;;;;;;;;3.25;3.25;;;;;21.60;50.79;101042.81;4910505;28;46121;-76
2021/07/31 10:46:48;;;;;;;;;2.25;2.25;;;;;21.66;51.50;101045.00;4911256;28;45431;-76
2021/07/31 10:49:35;;;;;;;;;2.50;2.25;;;;;21.78;51.47;101042.38;4917539;28;45377;-76
2021/07/31 10:52:00;;;;;;;;;3.00;2.75;;;;;21.84;51.19;101039.22;4916654;28;45541;-76
2021/07/31 10:54:59;;;;;;;;;2.75;2.75;;;;;21.89;49.54;101037.06;4913265;28;45489;-76
2021/07/31 10:57:52;;;;;;;;;3.50;3.00;;;;;22.00;49.34;101041.59;4895280;28;47282;-76
2021/07/31 11:00:20;;;;;;;;;3.00;3.00;;;;;22.05;48.04;101040.41;4910875;28;45438;-76
2021/07/31 11:02:45;;;;;;;;;3.00;3.00;;;;;22.02;49.14;101046.84;4914205;28;45330;-76
2021/07/31 11:05:11;;;;;;;;;3.00;2.50;;;;;22.05;49.57;101041.22;4912620;28;45595;-76
2021/07/31 11:07:58;;;;;;;;;3.00;3.00;;;;;22.10;49.66;101052.44;4903273;29;45324;-76
2021/07/31 11:10:45;;;;;;;;;3.50;3.25;;;;;22.15;48.95;101044.03;4914116;28;45259;-76
2021/07/31 11:13:33;;;;;;;;;2.00;2.00;;;;;22.19;48.39;101039.31;4923541;28;45283;-76
2021/07/31 11:15:58;;;;;;;;;2.00;2.00;;;;;22.21;49.60;101042.72;4904166;28;45441;-77
2021/07/31 11:18:47;;;;;;;;;3.00;3.00;;;;;22.24;49.85;101042.47;4908746;28;45425;-77
2021/07/31 11:21:22;;;;;;;;;2.25;2.25;;;;;22.25;49.40;101052.19;4923742;28;45179;-77
2021/07/31 11:24:00;;;;;;;;;3.00;1.25;;;;;22.19;48.68;101033.97;4907922;28;45466;-76
2021/07/31 11:26:51;;;;;;;;;5.50;3.00;;;;;22.13;49.72;101035.28;4908041;28;45575;-76
2021/07/31 11:29:26;;;;;;;;;3.00;3.00;;;;;22.10;47.54;101046.25;4917306;28;46184;-76
2021/07/31 11:32:13;;;;;;;;;2.50;2.50;;;;;22.08;48.63;101042.81;4920243;28;45467;-77
2021/07/31 11:34:45;;;;;;;;;5.00;4.25;;;;;22.07;48.65;101041.97;4920350;28;45275;-76
2021/07/31 11:37:11;;;;;;;;;3.00;3.00;;;;;22.05;48.34;101043.06;4913710;28;45503;-76
2021/07/31 11:39:38;;;;;;;;;3.25;3.25;;;;;22.04;47.37;101034.19;4914509;28;45477;-77
2021/07/31 11:42:04;;;;;;;;;3.00;3.00;;;;;22.00;49.51;101038.06;4917986;28;45277;-77
2021/07/31 11:44:35;;;;;;;;;4.25;4.25;;;;;21.97;49.92;101031.13;4922783;28;45250;-76
2021/07/31 11:47:01;;;;;;;;;2.00;2.00;;;;;22.00;50.48;101030.88;4909474;28;46492;-77
2021/07/31 11:49:34;;;;;;;;;2.25;2.25;;;;;22.02;49.46;101023.59;4911976;28;46451;-76
2021/07/31 11:52:10;;;;;;;;;3.50;2.00;;;;;22.06;50.08;101034.06;4918822;28;45588;-76
2021/07/31 11:54:40;;;;;;;;;4.00;3.00;;;;;22.09;50.47;101018.63;4914868;28;45368;-76
2021/07/31 11:57:06;;;;;;;;;5.00;3.25;;;;;22.14;50.15;101018.25;4907008;28;45491;-76
2021/07/31 11:59:37;;;;;;;;;2.00;2.00;;;;;22.17;49.06;101014.50;4909956;28;47481;-77
2021/07/31 12:02:03;;;;;;;;;3.00;2.00;;;;;22.17;49.33;101015.34;4910123;28;45476;-76
2021/07/31 12:04:52;;;;;;;;;3.25;3.00;;;;;22.22;49.55;101015.84;4908820;28;45222;-77
2021/07/31 12:07:21;;;;;;;;;3.50;3.00;;;;;22.29;48.43;101012.66;4906721;28;45438;-77
2021/07/31 12:09:57;;;;;;;;;3.00;3.00;;;;;22.30;48.47;101006.34;4914292;28;46248;-76
2021/07/31 12:12:23;;;;;;;;;2.00;2.00;;;;;22.30;48.84;101009.03;4922629;28;45340;-76
2021/07/31 12:15:26;;;;;;;;;2.75;1.75;;;;;22.32;48.75;101002.56;4918390;28;45324;-76
2021/07/31 12:17:55;;;;;;;;;4.50;2.00;;;;;22.35;48.52;101004.13;4902672;28;45212;-76
2021/07/31 12:20:31;;;;;;;;;3.25;2.50;;;;;22.40;48.57;101009.97;4917721;28;46461;-76
2021/07/31 12:22:59;;;;;;;;;2.75;2.50;;;;;22.45;48.75;101002.44;4907598;28;45990;-76
2021/07/31 12:25:26;;;;;;;;;2.00;2.00;;;;;22.54;49.13;101000.88;4914788;28;45361;-76
2021/07/31 12:28:06;;;;;;;;;3.00;3.00;;;;;22.59;47.89;100995.97;4910473;28;45529;-76
2021/07/31 12:30:34;;;;;;;;;3.00;3.00;;;;;22.67;48.52;100997.16;4919509;28;45572;-76
2021/07/31 12:33:06;;;;;;;;;2.25;2.25;;;;;22.73;48.62;100993.19;4922495;28;45462;-76
2021/07/31 12:35:53;;;;;;;;;4.50;2.00;;;;;22.77;48.44;100989.25;4918121;28;45298;-75
2021/07/31 12:38:21;;;;;;;;;3.25;2.25;;;;;22.84;48.39;100978.91;4902275;28;45526;-76
2021/07/31 12:41:01;;;;;;;;;2.00;2.00;;;;;22.79;48.58;100987.34;4922140;28;45285;-76
2021/07/31 12:43:28;;;;;;;;;2.00;1.75;;;;;22.72;45.06;100991.50;4919870;28;45427;-76
2021/07/31 12:45:55;;;;;;;;;2.00;2.00;;;;;22.68;47.75;100997.06;4903529;28;45408;-76
2021/07/31 12:48:20;;;;;;;;;2.00;1.75;;;;;22.63;47.84;100993.03;4915430;28;46286;-76
2021/07/31 12:50:46;;;;;;;;;3.00;3.00;;;;;22.62;48.24;101002.91;4922439;28;46272;-76
2021/07/31 12:53:13;;;;;;;;;1.50;1.50;;;;;22.59;48.23;100997.81;4908065;28;45688;-76
2021/07/31 12:55:39;;;;;;;;;3.75;3.00;;;;;22.58;47.39;100993.41;4905182;28;45241;-76
2021/07/31 12:58:05;;;;;;;;;2.50;2.50;;;;;22.58;48.02;100996.09;4906894;28;45500;-77
2021/07/31 13:00:30;;;;;;;;;2.50;2.00;;;;;22.56;47.79;100987.34;4902640;29;45292;-76
2021/07/31 13:02:58;;;;;;;;;3.00;1.75;;;;;22.58;46.45;100985.38;4914031;28;45461;-77
2021/07/31 13:05:23;;;;;;;;;2.25;1.75;;;;;22.58;47.42;100990.75;4911272;28;45353;-76
2021/07/31 13:07:56;;;;;;;;;3.00;3.00;;;;;22.62;47.73;100989.50;4906326;28;45581;-76
2021/07/31 13:10:22;;;;;;;;;2.00;2.00;;;;;22.68;48.16;100999.75;4921129;28;45444;-76
2021/07/31 13:12:47;;;;;;;;;2.00;2.00;;;;;22.72;47.29;100995.00;4908924;28;45639;-76
2021/07/31 13:15:14;;;;;;;;;3.00;3.00;;;;;22.75;47.78;101001.94;4907654;28;46000;-76
2021/07/31 13:17:39;;;;;;;;;2.00;2.00;;;;;22.72;47.52;100988.81;4917086;28;45470;-76
2021/07/31 13:20:05;;;;;;;;;2.50;2.00;;;;;22.70;47.64;100979.06;4907123;28;45472;-75
2021/07/31 13:22:32;;;;;;;;;2.50;2.25;;;;;22.65;47.91;100989.25;4904392;28;45855;-75
2021/07/31 13:24:58;;;;;;;;;3.00;2.00;;;;;22.62;46.21;100981.47;4915845;28;45238;-75
2021/07/31 13:27:26;;;;;;;;;3.50;3.50;;;;;22.62;47.41;100981.47;4921771;28;45336;-75
2021/07/31 13:29:53;;;;;;;;;3.00;3.00;;;;;22.65;47.18;100986.59;4921533;28;45730;-74
2021/07/31 13:32:19;;;;;;;;;6.25;5.00;;;;;22.70;47.44;100987.09;4908047;28;45564;-74
2021/07/31 13:34:44;;;;;;;;;4.00;3.00;;;;;22.76;48.13;100990.25;4917371;28;45417;-75
2021/07/31 13:37:18;;;;;;;;;2.50;2.50;;;;;22.77;47.69;100979.41;4906500;28;45394;-74
2021/07/31 13:39:44;;;;;;;;;1.75;1.75;;;;;22.79;46.07;100980.13;4914128;28;46157;-74
2021/07/31 13:42:11;;;;;;;;;3.50;3.50;;;;;22.84;47.25;100982.44;4908618;28;45326;-75
2021/07/31 13:44:37;;;;;;;;;2.25;2.25;;;;;22.81;47.51;100974.66;4921499;28;45305;-74
2021/07/31 13:47:02;;;;;;;;;3.00;3.00;;;;;22.82;47.35;100981.72;4921169;28;45528;-75
2021/07/31 13:49:28;;;;;;;;;2.25;2.25;;;;;22.78;45.39;100985.63;4908875;28;45604;-74
2021/07/31 13:51:54;;;;;;;;;2.50;2.00;;;;;22.77;46.69;100984.75;4909397;28;45563;-74
2021/07/31 13:54:19;;;;;;;;;2.00;2.00;;;;;22.76;47.12;100983.09;4911137;28;45148;-75
2021/07/31 13:56:45;;;;;;;;;2.50;2.50;;;;;22.76;47.09;100993.78;4924752;28;45574;-74
2021/07/31 13:59:12;;;;;;;;;3.00;3.00;;;;;22.75;47.57;100985.88;4926588;28;47147;-75
2021/07/31 14:01:37;;;;;;;;;3.75;2.25;;;;;22.70;47.06;100989.78;4913057;28;45327;-74
2021/07/31 14:04:03;;;;;;;;;2.25;2.25;;;;;22.69;46.91;100987.25;4920418;28;45329;-75
2021/07/31 14:06:28;;;;;;;;;2.00;2.00;;;;;22.69;47.81;100997.94;4923600;28;47428;-75
2021/07/31 14:08:54;;;;;;;;;2.00;2.00;;;;;22.67;47.18;100981.09;4911173;28;45313;-75
2021/07/31 14:11:19;;;;;;;;;2.00;2.00;;;;;22.65;47.74;100986.59;4918665;28;45318;-74
2021/07/31 14:13:45;;;;;;;;;2.00;2.00;;;;;22.66;46.16;100993.66;4904895;29;45235;-75
2021/07/31 14:16:10;;;;;;;;;3.75;2.00;;;;;22.66;47.23;100985.63;4924404;28;45454;-74
2021/07/31 14:18:35;;;;;;;;;5.00;3.00;;;;;22.69;47.11;100987.25;4939114;28;47039;-75
2021/07/31 14:21:08;;;;;;;;;3.00;2.00;;;;;22.70;47.28;100979.06;4918124;28;45322;-74
2021/07/31 14:23:34;;;;;;;;;2.00;2.00;;;;;22.77;47.18;100973.19;4907485;28;45287;-74
2021/07/31 14:26:00;;;;;;;;;1.00;1.00;;;;;22.83;47.03;100975.38;4920212;28;46122;-75
2021/07/31 14:28:26;;;;;;;;;1.75;1.75;;;;;22.86;45.18;100964.44;4928467;28;47061;-75
2021/07/31 14:30:52;;;;;;;;;3.00;2.00;;;;;22.87;46.81;100974.16;4919549;28;45464;-74
2021/07/31 14:33:17;;;;;;;;;2.75;2.25;;;;;22.90;45.73;100959.66;4904825;28;45428;-74
2021/07/31 14:35:42;;;;;;;;;1.75;1.75;;;;;22.86;46.07;100961.75;4916516;28;45413;-75
2021/07/31 14:38:08;;;;;;;;;3.50;2.00;;;;;22.86;47.12;100976.97;4912077;28;46209;-74
2021/07/31 14:40:34;;;;;;;;;3.00;3.00;;;;;22.88;46.59;100962.47;4937441;28;45235;-74
2021/07/31 14:42:59;;;;;;;;;3.00;2.00;;;;;22.96;47.05;100961.84;4920837;28;45204;-74
2021/07/31 14:45:25;;;;;;;;;2.25;2.00;;;;;23.04;46.61;100970.06;4913012;28;45256;-74
2021/07/31 14:47:50;;;;;;;;;1.75;1.75;;;;;23.07;46.06;100962.75;4913303;28;47167;-74
2021/07/31 14:50:16;;;;;;;;;2.00;1.50;;;;;23.05;46.70;100962.88;4919106;28;45313;-74
2021/07/31 14:52:41;;;;;;;;;1.75;1.75;;;;;23.00;46.04;100965.09;4913813;28;45341;-75
2021/07/31 14:55:07;;;;;;;;;3.00;2.75;;;;;22.99;45.53;100961.56;4910058;28;45281;-74
2021/07/31 14:57:32;;;;;;;;;3.25;2.00;;;;;23.05;46.39;100960.22;4915800;28;47813;-74
2021/07/31 14:59:57;;;;;;;;;2.00;2.00;;;;;23.12;44.38;100953.34;4917414;28;45337;-74
2021/07/31 15:02:24;;;;;;;;;3.00;3.00;;;;;23.25;45.29;100955.88;4923971;28;45286;-74
2021/07/31 15:04:50;;;;;;;;;1.50;1.50;;;;;23.31;45.34;100957.16;4925034;28;45992;-74
2021/07/31 15:07:17;;;;;;;;;3.00;2.25;;;;;23.29;44.90;100956.44;4917997;28;45327;-74
2021/07/31 15:09:42;;;;;;;;;2.00;2.00;;;;;23.29;42.90;100956.44;4909554;28;45283;-75
2021/07/31 15:12:08;;;;;;;;;3.00;2.00;;;;;23.30;44.67;100955.47;4917350;28;45199;-74
2021/07/31 15:14:33;;;;;;;;;2.00;2.00;;;;;23.26;45.15;100954.88;4921953;28;46083;-74
2021/07/31 15:16:58;;;;;;;;;2.00;2.00;;;;;23.26;44.94;100962.09;4935768;28;48043;-75
2021/07/31 15:19:24;;;;;;;;;1.00;1.00;;;;;23.24;45.00;100954.16;4913076;28;45433;-74
2021/07/31 15:21:50;;;;;;;;;2.50;2.50;;;;;23.25;43.36;100949.66;4922019;28;45175;-75
2021/07/31 15:24:15;;;;;;;;;2.50;2.50;;;;;23.29;43.86;100950.22;4909484;28;45259;-74
2021/07/31 15:26:40;;;;;;;;;2.00;2.00;;;;;23.30;43.41;100951.94;4923638;28;45422;-75
2021/07/31 15:29:06;;;;;;;;;3.00;3.00;;;;;23.27;44.45;100948.53;4909963;28;45173;-75
2021/07/31 15:31:31;;;;;;;;;2.00;1.00;;;;;23.26;45.04;100948.69;4907471;28;45244;-75
2021/07/31 15:33:56;;;;;;;;;1.00;1.00;;;;;23.22;45.28;100947.22;4913310;28;45460;-75
2021/07/31 15:36:22;;;;;;;;;1.00;1.00;;;;;23.19;43.50;100939.44;4923313;28;45758;-75
2021/07/31 15:38:47;;;;;;;;;2.50;1.25;;;;;23.16;43.48;100944.06;4910091;28;45397;-74
2021/07/31 15:41:13;;;;;;;;;1.75;1.75;;;;;23.14;43.16;100929.94;4923521;28;45268;-75
2021/07/31 15:43:38;;;;;;;;;3.75;2.00;;;;;23.14;44.62;100935.31;4909844;28;45355;-74
2021/07/31 15:46:04;;;;;;;;;4.50;3.25;;;;;23.13;45.06;100938.13;4923199;28;45294;-75
2021/07/31 15:48:29;;;;;;;;;4.25;3.25;;;;;23.11;44.47;100932.88;4910010;28;45299;-74
2021/07/31 15:50:54;;;;;;;;;3.00;3.00;;;;;23.08;43.93;100934.97;4923255;28;45481;-74
2021/07/31 15:53:21;;;;;;;;;2.00;2.00;;;;;23.04;43.58;100937.06;4906997;28;45242;-74
2021/07/31 15:55:46;;;;;;;;;2.00;2.00;;;;;23.02;43.13;100929.16;4923247;28;45481;-75
2021/07/31 15:58:12;;;;;;;;;3.00;3.00;;;;;23.02;44.71;100931.81;4910850;28;45267;-75
2021/07/31 16:00:37;;;;;;;;;2.00;2.00;;;;;23.00;44.51;100933.78;4921699;28;45227;-74
2021/07/31 16:03:02;;;;;;;;;1.50;1.50;;;;;22.96;44.29;100929.69;4904163;28;45212;-75
2021/07/31 16:05:28;;;;;;;;;2.00;2.00;;;;;22.95;44.79;100935.16;4922929;28;46243;-74
2021/07/31 16:07:53;;;;;;;;;1.75;1.00;;;;;22.95;43.85;100927.09;4912821;28;45445;-75
2021/07/31 16:10:19;;;;;;;;;1.25;1.25;;;;;22.95;44.06;100924.41;4919853;28;45267;-74
2021/07/31 16:12:44;;;;;;;;;2.75;2.00;;;;;22.97;43.79;100925.13;4912130;28;45481;-75
2021/07/31 16:15:10;;;;;;;;;0.75;0.75;;;;;22.97;43.65;100926.00;4920034;28;47098;-74
2021/07/31 16:17:35;;;;;;;;;2.75;2.00;;;;;22.95;43.32;100921.75;4914834;28;45236;-75
2021/07/31 16:20:02;;;;;;;;;2.00;1.00;;;;;22.92;43.27;100928.22;4916226;28;45278;-74
2021/07/31 16:22:27;;;;;;;;;3.00;2.00;;;;;22.90;43.88;100923.00;4928987;28;46448;-74
2021/07/31 16:24:53;;;;;;;;;3.00;2.00;;;;;22.92;44.29;100918.34;4903278;28;45351;-74
2021/07/31 16:27:18;;;;;;;;;0.75;0.75;;;;;22.96;44.66;100923.47;4920990;28;45347;-75
2021/07/31 16:29:43;;;;;;;;;1.00;1.00;;;;;22.95;44.61;100924.41;4922451;28;45304;-75
2021/07/31 16:32:09;;;;;;;;;2.00;2.00;;;;;22.94;45.13;100928.94;4909948;28;45318;-75
2021/07/31 16:34:36;;;;;;;;;1.75;1.00;;;;;22.92;44.69;100917.50;4912465;28;45431;-75
2021/07/31 16:37:01;;;;;;;;;2.00;2.00;;;;;22.92;45.19;100904.94;4915825;28;45329;-75
2021/07/31 16:39:27;;;;;;;;;0.25;0.25;;;;;22.93;45.00;100914.69;4927067;28;45652;-74
2021/07/31 16:41:52;;;;;;;;;1.00;1.00;;;;;22.93;45.32;100903.97;4905600;28;45259;-74
2021/07/31 16:44:18;;;;;;;;;2.50;2.50;;;;;22.93;45.47;100906.66;4911133;28;45359;-75
2021/07/31 16:46:43;;;;;;;;;1.00;1.00;;;;;22.97;45.29;100920.63;4927714;28;45215;-74
2021/07/31 16:49:09;;;;;;;;;2.50;1.50;;;;;22.96;44.10;100923.47;4936579;28;45160;-75
2021/07/31 16:51:34;;;;;;;;;21.00;16.50;;;;;22.92;45.32;100923.72;4913716;28;48580;-75
2021/07/31 16:54:00;;;;;;;;;6.00;6.00;;;;;22.86;45.86;100918.88;4927206;28;45298;-75
2021/07/31 16:56:25;;;;;;;;;5.50;5.25;;;;;22.78;45.47;100927.53;4938532;28;45420;-75
2021/07/31 16:58:50;;;;;;;;;5.75;5.50;;;;;22.67;45.76;100925.69;4925401;28;45354;-74
2021/07/31 17:01:16;;;;;;;;;8.00;4.25;;;;;22.59;46.09;100928.19;4937079;28;45323;-75
2021/07/31 17:03:41;;;;;;;;;5.00;4.75;;;;;22.55;46.22;100926.69;4924108;28;46231;-75
2021/07/31 17:06:06;;;;;;;;;18.50;17.00;;;;;22.51;46.86;100931.47;4918885;28;45454;-75
2021/07/31 17:08:32;;;;;;;;;6.00;5.00;;;;;22.48;46.59;100937.94;4917662;28;45838;-75
2021/07/31 17:10:58;;;;;;;;;4.00;4.00;;;;;22.41;46.03;100936.72;4923064;28;45339;-75
2021/07/31 17:13:23;;;;;;;;;3.00;3.00;;;;;22.30;46.42;100934.91;4919929;28;47499;-75
2021/07/31 17:15:49;;;;;;;;;43.50;36.50;;;;;22.25;46.46;100943.31;4927987;28;45477;-75
2021/07/31 17:18:15;;;;;;;;;15.25;12.25;;;;;22.21;46.83;100941.00;4919307;28;45552;-75
2021/07/31 17:20:41;;;;;;;;;28.00;21.25;;;;;22.19;46.81;100937.59;4923420;28;45301;-75
2021/07/31 17:23:06;;;;;;;;;19.50;17.00;;;;;22.15;46.98;100931.63;4920827;28;46750;-75
2021/07/31 17:25:31;;;;;;;;;21.00;17.75;;;;;22.16;47.22;100944.03;4916181;28;47091;-75
2021/07/31 17:27:57;;;;;;;;;19.50;17.25;;;;;22.21;47.62;100941.00;4917413;28;45459;-75
2021/07/31 17:30:23;;;;;;;;;15.75;14.25;;;;;22.27;47.62;100953.91;4927815;28;45456;-75
2021/07/31 17:32:49;;;;;;;;;28.00;25.75;;;;;22.27;47.57;100940.53;4923170;28;47119;-75
2021/07/31 17:35:14;;;;;;;;;37.00;28.50;;;;;22.25;48.62;100943.31;4929763;28;45269;-75
2021/07/31 17:37:41;;;;;;;;;15.00;12.00;;;;;22.24;47.62;100936.25;4932494;28;45414;-75
2021/07/31 17:40:09;;;;;;;;;16.50;11.50;;;;;22.23;47.66;100939.03;4922742;28;45525;-75
2021/07/31 17:42:34;;;;;;;;;15.75;13.00;;;;;22.23;48.06;100939.03;4938671;28;47977;-75
2021/07/31 17:44:59;;;;;;;;;10.75;7.50;;;;;22.24;49.04;100941.63;4934456;28;45472;-75
2021/07/31 17:47:25;;;;;;;;;14.50;13.75;;;;;22.27;48.41;100940.53;4933008;28;45884;-75
2021/07/31 17:49:50;;;;;;;;;23.75;20.00;;;;;22.26;49.21;100939.66;4919741;28;47157;-75
2021/07/31 17:52:15;;;;;;;;;10.50;8.25;;;;;22.25;48.74;100940.63;4920795;28;46255;-75
2021/07/31 17:54:41;;;;;;;;;22.00;18.00;;;;;22.23;49.69;100939.91;4931507;28;45417;-76
2021/07/31 17:57:06;;;;;;;;;18.25;16.25;;;;;22.24;49.15;100938.94;4937232;28;45473;-76
2021/07/31 17:59:32;;;;;;;;;8.00;7.00;;;;;22.24;48.78;100935.41;4914265;28;45605;-75
2021/07/31 18:01:58;;;;;;;;;22.25;18.50;;;;;22.20;48.08;100940.13;4911141;28;45744;-75
2021/07/31 18:04:23;;;;;;;;;8.50;5.50;;;;;22.20;47.84;100940.13;4925009;28;45354;-75
2021/07/31 18:06:49;;;;;;;;;14.50;12.75;;;;;22.17;47.99;100935.06;4920251;28;45172;-75
2021/07/31 18:09:14;;;;;;;;;21.00;19.50;;;;;22.15;47.54;100942.31;4923242;28;45213;-75
2021/07/31 18:11:39;;;;;;;;;18.00;16.00;;;;;22.16;47.48;100941.38;4924029;28;46466;-75